Aviation Digital Data Service (ADDS)

Output produced by TAFs form (1837 UTC 01 September 2014)
found at http://aviationweather.gov/adds/tafs/
 
KLND 011720Z 0118/0218 02006KT P6SM SCT090 
     FM020100 24008KT P6SM SKC